createdAt,value
2023-04-12T00:01:03.697Z,100042.34
2023-04-12T00:03:54.558Z,100039.69
2023-04-12T00:06:48.517Z,100046.66
2023-04-12T00:09:37.954Z,100045.84
2023-04-12T00:12:27.269Z,100042.78
2023-04-12T00:15:16.051Z,100041.31
2023-04-12T00:18:06.454Z,100033.97
2023-04-12T00:20:55.636Z,100033.13
2023-04-12T00:23:45.455Z,100030.28
2023-04-12T00:26:34.174Z,100033.53
2023-04-12T00:29:23.060Z,100025.31
2023-04-12T00:32:12.365Z,100029.84
2023-04-12T00:35:02.386Z,100013.44
2023-04-12T00:37:51.705Z,100006.88
2023-04-12T00:40:43.122Z,100004.38
2023-04-12T00:43:32.059Z,100008.06
2023-04-12T00:46:21.139Z,100005.66
2023-04-12T00:49:09.874Z,100004.38
2023-04-12T00:52:03.341Z,99995.75
2023-04-12T00:54:53.634Z,99994.97
2023-04-12T00:57:42.635Z,99994.91
2023-04-12T01:00:31.507Z,100001.94
2023-04-12T01:03:23.260Z,99999.44
2023-04-12T01:06:15.502Z,99990.00
2023-04-12T01:09:16.247Z,99976.47
2023-04-12T01:12:11.765Z,99985.25
2023-04-12T01:15:04.887Z,99973.97
2023-04-12T01:17:58.852Z,99974.19
2023-04-12T01:20:57.712Z,99971.56
2023-04-12T01:23:55.939Z,99975.00
2023-04-12T01:26:48.294Z,99970.69
2023-04-12T01:29:39.721Z,99968.63
2023-04-12T01:32:28.761Z,99961.25
2023-04-12T01:35:17.981Z,99953.66
2023-04-12T01:38:07.429Z,99962.91
2023-04-12T01:40:56.700Z,99957.97
2023-04-12T01:43:46.613Z,99954.91
2023-04-12T01:46:37.900Z,99946.50
2023-04-12T01:49:28.982Z,99939.53
2023-04-12T01:52:22.454Z,99931.53
2023-04-12T01:55:12.273Z,99927.59
2023-04-12T01:58:01.414Z,99925.13
2023-04-12T02:00:51.845Z,99918.56
2023-04-12T02:03:43.469Z,99910.34
2023-04-12T02:06:33.142Z,99907.06
2023-04-12T02:09:22.730Z,99916.28
2023-04-12T02:12:11.465Z,99921.44
2023-04-12T02:15:00.292Z,99905.00
2023-04-12T02:17:49.415Z,99907.03
2023-04-12T02:20:39.767Z,99899.47
2023-04-12T02:23:28.460Z,99895.97
2023-04-12T02:26:19.012Z,99900.91
2023-04-12T02:29:09.187Z,99894.75
2023-04-12T02:31:57.896Z,99892.72
2023-04-12T02:34:51.420Z,99896.00
2023-04-12T02:37:43.972Z,99896.00
2023-04-12T02:40:32.884Z,99888.63
2023-04-12T02:43:21.862Z,99887.38
2023-04-12T02:46:10.551Z,99892.13
2023-04-12T02:48:59.847Z,99881.66
2023-04-12T02:51:48.441Z,99889.44
2023-04-12T02:54:38.600Z,99889.03
2023-04-12T02:57:27.540Z,99888.41
2023-04-12T03:00:16.948Z,99892.28
2023-04-12T03:03:05.867Z,99891.88
2023-04-12T03:05:55.030Z,99893.94
2023-04-12T03:08:44.813Z,99888.59
2023-04-12T03:11:34.943Z,99885.34
2023-04-12T03:14:24.696Z,99876.50
2023-04-12T03:17:13.341Z,99877.50
2023-04-12T03:20:07.540Z,99868.50
2023-04-12T03:22:56.178Z,99872.41
2023-04-12T03:25:44.804Z,99858.66
2023-04-12T03:28:34.922Z,99851.06
2023-04-12T03:31:23.867Z,99856.19
2023-04-12T03:34:12.861Z,99853.34
2023-04-12T03:37:02.771Z,99851.25
2023-04-12T03:39:51.692Z,99845.94
2023-04-12T03:42:40.532Z,99840.81
2023-04-12T03:45:31.681Z,99839.81
2023-04-12T03:48:20.928Z,99836.94
2023-04-12T03:51:12.296Z,99841.81
2023-04-12T03:54:02.813Z,99823.00
2023-04-12T03:56:51.616Z,99816.44
2023-04-12T03:59:40.443Z,99813.91
2023-04-12T04:02:31.769Z,99818.66
2023-04-12T04:05:27.051Z,99811.84
2023-04-12T04:08:16.011Z,99811.47
2023-04-12T04:11:05.774Z,99820.47
2023-04-12T04:13:55.767Z,99820.69
2023-04-12T04:16:44.868Z,99810.19
2023-04-12T04:19:35.293Z,99800.19
2023-04-12T04:22:24.199Z,99811.06
2023-04-12T04:25:14.349Z,99804.47
2023-04-12T04:28:03.076Z,99802.03
2023-04-12T04:30:51.691Z,99802.44
2023-04-12T04:33:41.949Z,99799.13
2023-04-12T04:36:32.263Z,99792.56
2023-04-12T04:39:20.944Z,99790.53
2023-04-12T04:42:09.709Z,99788.50
2023-04-12T04:45:03.773Z,99796.69
2023-04-12T04:47:53.644Z,99788.69
2023-04-12T04:50:42.302Z,99793.03
2023-04-12T04:53:32.406Z,99786.69
2023-04-12T04:56:23.524Z,99786.06
2023-04-12T04:59:12.169Z,99794.66
2023-04-12T05:02:00.955Z,99783.59
2023-04-12T05:04:49.571Z,99786.91
2023-04-12T05:07:38.919Z,99779.94
2023-04-12T05:10:29.479Z,99791.19
2023-04-12T05:13:22.318Z,99791.19
2023-04-12T05:16:11.924Z,99791.78
2023-04-12T05:19:00.832Z,99792.63
2023-04-12T05:21:49.506Z,99785.47
2023-04-12T05:24:38.603Z,99784.00
2023-04-12T05:27:28.813Z,99778.88
2023-04-12T05:30:17.474Z,99777.66
2023-04-12T05:33:06.488Z,99768.22
2023-04-12T05:35:55.396Z,99768.44
2023-04-12T05:38:44.863Z,99766.97
2023-04-12T05:41:33.615Z,99759.56
2023-04-12T05:44:23.748Z,99754.03
2023-04-12T05:47:13.082Z,99759.34
2023-04-12T05:50:01.899Z,99747.09
2023-04-12T05:52:52.324Z,99738.06
2023-04-12T05:55:42.611Z,99729.84
2023-04-12T05:58:31.775Z,99722.28
2023-04-12T06:01:21.954Z,99718.38
2023-04-12T06:04:10.708Z,99713.81
2023-04-12T06:06:59.469Z,99703.63
2023-04-12T06:09:49.750Z,99702.78
2023-04-12T06:12:38.517Z,99696.41
2023-04-12T06:15:27.303Z,99690.84
2023-04-12T06:18:17.789Z,99683.47
2023-04-12T06:21:07.171Z,99676.13
2023-04-12T06:23:55.807Z,99669.47
2023-04-12T06:26:47.429Z,99661.75
2023-04-12T06:29:36.366Z,99659.25
2023-04-12T06:32:27.907Z,99642.03
2023-04-12T06:35:18.297Z,99636.88
2023-04-12T06:38:06.898Z,99635.03
2023-04-12T06:40:55.624Z,99641.56
2023-04-12T06:43:44.314Z,99639.91
2023-04-12T06:46:33.108Z,99632.50
2023-04-12T06:49:21.716Z,99627.75
2023-04-12T06:52:14.757Z,99620.97
2023-04-12T06:55:06.935Z,99615.66
2023-04-12T06:57:56.402Z,99617.28
2023-04-12T07:00:45.143Z,99615.81
2023-04-12T07:03:33.902Z,99615.97
2023-04-12T07:06:25.964Z,99609.00
2023-04-12T07:09:18.195Z,99605.91
2023-04-12T07:12:07.153Z,99601.63
2023-04-12T07:14:55.881Z,99594.25
2023-04-12T07:17:44.538Z,99595.06
2023-04-12T07:20:33.333Z,99585.22
2023-04-12T07:23:21.972Z,99589.72
2023-04-12T07:26:12.052Z,99580.66
2023-04-12T07:29:00.712Z,99586.59
2023-04-12T07:31:49.341Z,99581.44
2023-04-12T07:34:39.451Z,99578.78
2023-04-12T07:37:28.179Z,99566.63
2023-04-12T07:40:17.070Z,99558.91
2023-04-12T07:43:07.580Z,99559.72
2023-04-12T07:45:56.666Z,99553.72
2023-04-12T07:48:45.721Z,99546.56
2023-04-12T07:51:34.520Z,99545.72
2023-04-12T07:54:23.696Z,99535.88
2023-04-12T07:57:12.533Z,99531.78
2023-04-12T08:00:05.779Z,99518.59
2023-04-12T08:02:54.817Z,99519.03
2023-04-12T08:05:44.460Z,99502.56
2023-04-12T08:08:33.191Z,99496.78
2023-04-12T08:11:21.858Z,99493.94
2023-04-12T08:14:10.550Z,99489.81
2023-04-12T08:17:00.589Z,99482.84
2023-04-12T08:19:49.593Z,99469.72
2023-04-12T08:22:38.379Z,99476.34
2023-04-12T08:25:27.118Z,99469.75
2023-04-12T08:28:16.745Z,99478.34
2023-04-12T08:31:07.144Z,99471.09
2023-04-12T08:34:05.290Z,99468.69
2023-04-12T08:36:53.965Z,99464.50
2023-04-12T08:39:42.629Z,99463.47
2023-04-12T08:42:31.900Z,99460.34
2023-04-12T08:45:21.289Z,99456.88
2023-04-12T08:48:09.969Z,99447.91
2023-04-12T08:50:59.938Z,99453.91
2023-04-12T08:53:48.917Z,99452.44
2023-04-12T08:56:37.929Z,99437.28
2023-04-12T08:59:27.197Z,99442.22
2023-04-12T09:02:16.172Z,99435.41
2023-04-12T09:05:09.626Z,99439.75
2023-04-12T09:08:00.006Z,99437.09
2023-04-12T09:10:48.606Z,99431.75
2023-04-12T09:13:37.974Z,99416.72
2023-04-12T09:16:40.399Z,99424.09
2023-04-12T09:19:36.142Z,99425.75
2023-04-12T09:22:35.813Z,99411.38
2023-04-12T09:25:45.126Z,99407.28
2023-04-12T09:28:33.990Z,99405.66
2023-04-12T09:31:22.592Z,99392.69
2023-04-12T09:34:11.495Z,99385.94
2023-04-12T09:37:00.682Z,99384.44
2023-04-12T09:39:49.305Z,99386.72
2023-04-12T09:42:53.694Z,99370.63
2023-04-12T09:45:42.839Z,99380.06
2023-04-12T09:48:31.596Z,99359.97
2023-04-12T09:51:28.430Z,99356.78
2023-04-12T09:54:17.098Z,99357.16
2023-04-12T09:57:06.855Z,99344.41
2023-04-12T09:59:58.796Z,99333.25
2023-04-12T10:02:52.789Z,99338.25
2023-04-12T10:05:42.347Z,99318.75
2023-04-12T10:08:31.526Z,99327.34
2023-04-12T10:11:21.142Z,99319.13
2023-04-12T10:14:10.406Z,99323.88
2023-04-12T10:17:01.448Z,99318.88
2023-04-12T10:19:50.349Z,99300.34
2023-04-12T10:22:41.189Z,99288.50
2023-04-12T10:25:31.764Z,99289.28
2023-04-12T10:28:23.015Z,99294.25
2023-04-12T10:31:31.247Z,99291.00
2023-04-12T10:34:25.947Z,99284.41
2023-04-12T10:37:15.659Z,99279.19
2023-04-12T10:40:04.954Z,99267.13
2023-04-12T10:43:27.799Z,99279.44
2023-04-12T10:46:50.016Z,99279.44
2023-04-12T10:49:41.724Z,99257.63
2023-04-12T10:52:30.391Z,99253.53
2023-04-12T10:55:32.790Z,99257.16
2023-04-12T10:58:58.267Z,99246.38
2023-04-12T11:02:11.560Z,99238.78
2023-04-12T11:05:10.257Z,99256.91
2023-04-12T11:08:02.877Z,99234.84
2023-04-12T11:10:52.222Z,99231.41
2023-04-12T11:13:41.168Z,99232.56
2023-04-12T11:16:29.889Z,99213.66
2023-04-12T11:19:18.709Z,99227.44
2023-04-12T11:22:11.362Z,99234.66
2023-04-12T11:25:01.460Z,99213.41
2023-04-12T11:27:54.802Z,99205.88
2023-04-12T11:30:51.026Z,99198.06
2023-04-12T11:33:41.470Z,99198.44
2023-04-12T11:36:30.061Z,99200.06
2023-04-12T11:39:20.485Z,99193.47
2023-04-12T11:42:09.545Z,99179.91
2023-04-12T11:45:02.856Z,99184.19
2023-04-12T11:47:58.007Z,99174.56
2023-04-12T11:50:51.855Z,99164.44
2023-04-12T11:53:47.128Z,99151.91
2023-04-12T11:56:37.174Z,99151.53
2023-04-12T11:59:33.915Z,99141.31
2023-04-12T12:02:24.384Z,99145.03
2023-04-12T12:05:13.889Z,99129.75
2023-04-12T12:08:06.057Z,99124.41
2023-04-12T12:11:07.139Z,99123.94
2023-04-12T12:13:58.694Z,99115.22
2023-04-12T12:16:54.769Z,99105.03
2023-04-12T12:19:45.025Z,99101.88
2023-04-12T12:22:33.674Z,99094.22
2023-04-12T12:25:22.436Z,99090.97
2023-04-12T12:28:14.605Z,99078.66
2023-04-12T12:31:07.849Z,99077.03
2023-04-12T12:33:57.775Z,99062.06
2023-04-12T12:36:46.573Z,99051.16
2023-04-12T12:39:36.286Z,99057.28
2023-04-12T12:42:24.869Z,99061.13
2023-04-12T12:45:13.958Z,99068.09
2023-04-12T12:48:05.115Z,99032.22
2023-04-12T12:50:53.829Z,99051.94
2023-04-12T12:53:42.632Z,99045.59
2023-04-12T12:56:31.591Z,99027.91
2023-04-12T12:59:23.355Z,99021.41
2023-04-12T13:02:15.657Z,99034.28
2023-04-12T13:05:10.967Z,99033.25
2023-04-12T13:08:00.491Z,99032.69
2023-04-12T13:10:49.085Z,99027.91
2023-04-12T13:13:37.740Z,99010.88
2023-04-12T13:16:27.095Z,99013.75
2023-04-12T13:19:16.198Z,99000.19
2023-04-12T13:22:07.321Z,98999.84
2023-04-12T13:24:56.472Z,98997.75
2023-04-12T13:27:45.063Z,98999.38
2023-04-12T13:30:33.636Z,98989.50
2023-04-12T13:33:22.513Z,98988.13
2023-04-12T13:36:11.393Z,98980.91
2023-04-12T13:39:01.432Z,98984.25
2023-04-12T13:41:50.067Z,98983.34
2023-04-12T13:44:38.661Z,98985.56
2023-04-12T13:47:28.334Z,98983.13
2023-04-12T13:50:17.077Z,98975.94
2023-04-12T13:53:05.688Z,98976.38
2023-04-12T13:55:56.153Z,98984.75
2023-04-12T13:58:45.808Z,98975.31
2023-04-12T14:01:34.477Z,98963.97
2023-04-12T14:04:23.490Z,98969.09
2023-04-12T14:07:12.168Z,98965.13
2023-04-12T14:10:00.759Z,98965.59
2023-04-12T14:12:50.765Z,98960.47
2023-04-12T14:15:39.441Z,98957.50
2023-04-12T14:18:28.223Z,98951.69
2023-04-12T14:21:16.901Z,98962.84
2023-04-12T14:24:05.603Z,98966.06
2023-04-12T14:26:54.370Z,98990.31
2023-04-12T14:29:44.473Z,98984.19
2023-04-12T14:32:33.085Z,98979.41
2023-04-12T14:35:21.736Z,98974.44
2023-04-12T14:38:10.379Z,98984.31
2023-04-12T14:40:59.066Z,98980.72
2023-04-12T14:43:47.667Z,98980.06
2023-04-12T14:46:37.779Z,98988.91
2023-04-12T14:49:28.462Z,98990.34
2023-04-12T14:52:18.652Z,98988.72
2023-04-12T14:55:08.342Z,98991.00
2023-04-12T14:57:56.966Z,98986.44
2023-04-12T15:00:45.848Z,98998.75
2023-04-12T15:03:36.315Z,98992.63
2023-04-12T15:06:27.236Z,98997.28
2023-04-12T15:09:17.539Z,98992.25
2023-04-12T15:12:06.388Z,98989.59
2023-04-12T15:14:57.605Z,98989.00
2023-04-12T15:17:47.166Z,98985.66
2023-04-12T15:20:37.173Z,98991.56
2023-04-12T15:23:26.168Z,98996.47
2023-04-12T15:26:15.847Z,98990.44
2023-04-12T15:29:04.553Z,98979.41
2023-04-12T15:31:54.311Z,98983.84
2023-04-12T15:34:42.983Z,98978.50
2023-04-12T15:37:34.512Z,98995.88
2023-04-12T15:40:23.274Z,98982.09
2023-04-12T15:43:12.338Z,98981.25
2023-04-12T15:46:03.607Z,98968.16
2023-04-12T15:48:52.206Z,98968.97
2023-04-12T15:51:41.401Z,98957.03
2023-04-12T15:54:31.445Z,98960.75
2023-04-12T15:57:20.070Z,98953.66
2023-04-12T16:00:20.923Z,98955.03
2023-04-12T16:03:09.948Z,98948.75
2023-04-12T16:05:58.745Z,98947.84
2023-04-12T16:08:49.018Z,98935.09
2023-04-12T16:11:39.273Z,98935.53
2023-04-12T16:14:28.126Z,98935.19
2023-04-12T16:17:17.129Z,98941.47
2023-04-12T16:20:10.523Z,98939.94
2023-04-12T16:22:59.228Z,98925.91
2023-04-12T16:25:49.168Z,98918.47
2023-04-12T16:28:39.503Z,98921.13
2023-04-12T16:31:28.433Z,98912.34
2023-04-12T16:34:21.722Z,98902.84
2023-04-12T16:37:10.396Z,98895.41
2023-04-12T16:39:59.757Z,98889.59
2023-04-12T16:42:49.557Z,98889.50
2023-04-12T16:45:39.540Z,98888.09
2023-04-12T16:48:28.898Z,98880.66
2023-04-12T16:51:17.574Z,98870.34
2023-04-12T16:54:06.435Z,98866.94
2023-04-12T16:56:56.409Z,98862.56
2023-04-12T16:59:45.980Z,98854.63
2023-04-12T17:02:36.134Z,98852.09
2023-04-12T17:05:25.468Z,98845.28
2023-04-12T17:08:15.531Z,98841.94
2023-04-12T17:11:04.096Z,98838.63
2023-04-12T17:13:52.765Z,98840.25
2023-04-12T17:16:41.398Z,98845.59
2023-04-12T17:19:32.098Z,98845.59
2023-04-12T17:22:20.677Z,98838.22
2023-04-12T17:25:10.891Z,98835.16
2023-04-12T17:27:59.871Z,98835.53
2023-04-12T17:30:48.538Z,98845.25
2023-04-12T17:33:38.170Z,98841.31
2023-04-12T17:36:31.620Z,98838.75
2023-04-12T17:39:20.415Z,98832.41
2023-04-12T17:42:08.990Z,98839.56
2023-04-12T17:44:57.551Z,98838.22
2023-04-12T17:47:46.416Z,98845.59
2023-04-12T17:50:38.692Z,98848.88
2023-04-12T17:53:30.494Z,98843.41
2023-04-12T17:56:24.234Z,98834.13
2023-04-12T17:59:13.440Z,98832.88
2023-04-12T18:02:03.024Z,98841.78
2023-04-12T18:04:52.308Z,98847.28
2023-04-12T18:07:42.628Z,98840.25
2023-04-12T18:10:35.376Z,98830.06
2023-04-12T18:13:24.393Z,98827.03
2023-04-12T18:16:13.452Z,98834.72
2023-04-12T18:19:03.898Z,98827.78
2023-04-12T18:21:52.920Z,98831.47
2023-04-12T18:24:41.902Z,98821.47
2023-04-12T18:27:33.491Z,98821.00
2023-04-12T18:30:27.546Z,98816.38
2023-04-12T18:33:17.387Z,98820.59
2023-04-12T18:36:06.841Z,98822.88
2023-04-12T18:38:58.681Z,98830.06
2023-04-12T18:41:47.794Z,98831.56
2023-04-12T18:44:39.366Z,98837.94
2023-04-12T18:47:29.294Z,98829.81
2023-04-12T18:50:19.687Z,98831.78
2023-04-12T18:53:09.892Z,98838.28
2023-04-12T18:56:09.312Z,98843.50
2023-04-12T18:58:58.045Z,98834.88
2023-04-12T19:01:48.205Z,98828.50
2023-04-12T19:04:39.045Z,98832.34
2023-04-12T19:07:27.887Z,98834.44
2023-04-12T19:10:17.635Z,98830.72
2023-04-12T19:13:06.399Z,98830.22
2023-04-12T19:15:56.134Z,98821.16
2023-04-12T19:18:46.329Z,98828.69
2023-04-12T19:21:35.470Z,98831.06
2023-04-12T19:24:24.462Z,98834.63
2023-04-12T19:27:13.119Z,98833.94
2023-04-12T19:30:01.797Z,98830.44
2023-04-12T19:32:50.671Z,98827.19
2023-04-12T19:35:42.344Z,98812.78
2023-04-12T19:38:31.085Z,98794.47
2023-04-12T19:41:20.396Z,98799.81
2023-04-12T19:44:09.244Z,98787.03
2023-04-12T19:46:57.979Z,98766.50
2023-04-12T19:49:46.965Z,98767.97
2023-04-12T19:52:36.949Z,98763.00
2023-04-12T19:55:26.200Z,98758.22
2023-04-12T19:58:15.441Z,98751.66
2023-04-12T20:01:04.404Z,98760.59
2023-04-12T20:03:53.046Z,98755.09
2023-04-12T20:06:41.912Z,98756.59
2023-04-12T20:09:32.334Z,98761.94
2023-04-12T20:12:21.234Z,98763.09
2023-04-12T20:15:13.217Z,98770.06
2023-04-12T20:18:02.078Z,98783.16
2023-04-12T20:20:52.016Z,98781.88
2023-04-12T20:23:40.911Z,98793.97
2023-04-12T20:26:32.397Z,98788.19
2023-04-12T20:29:21.410Z,98795.16
2023-04-12T20:32:10.210Z,98796.78
2023-04-12T20:34:59.086Z,98803.53
2023-04-12T20:37:50.554Z,98806.25
2023-04-12T20:40:39.770Z,98806.47
2023-04-12T20:43:29.974Z,98804.22
2023-04-12T20:46:25.572Z,98821.16
2023-04-12T20:49:14.672Z,98814.22
2023-04-12T20:52:04.378Z,98820.38
2023-04-12T20:54:54.655Z,98820.69
2023-04-12T20:57:43.753Z,98821.44
2023-04-12T21:00:34.002Z,98814.63
2023-04-12T21:03:23.026Z,98810.69
2023-04-12T21:06:11.853Z,98807.44
2023-04-12T21:09:01.621Z,98814.63
2023-04-12T21:11:50.385Z,98814.53
2023-04-12T21:14:39.159Z,98819.84
2023-04-12T21:17:30.182Z,98820.69
2023-04-12T21:20:18.931Z,98806.75
2023-04-12T21:23:11.326Z,98810.47
2023-04-12T21:26:00.221Z,98802.22
2023-04-12T21:28:48.790Z,98797.56
2023-04-12T21:31:41.627Z,98796.97
2023-04-12T21:34:32.554Z,98816.13
2023-04-12T21:37:22.106Z,98815.34
2023-04-12T21:40:12.594Z,98812.91
2023-04-12T21:43:01.647Z,98820.34
2023-04-12T21:45:50.352Z,98824.50
2023-04-12T21:48:39.026Z,98813.81
2023-04-12T21:51:29.038Z,98815.44
2023-04-12T21:54:17.603Z,98819.16
2023-04-12T21:57:06.272Z,98812.06
2023-04-12T21:59:57.341Z,98809.09
2023-04-12T22:02:46.132Z,98813.81
2023-04-12T22:05:35.895Z,98815.56
2023-04-12T22:08:25.920Z,98814.03
2023-04-12T22:11:14.610Z,98806.50
2023-04-12T22:14:03.570Z,98809.44
2023-04-12T22:16:53.329Z,98814.97
2023-04-12T22:19:42.267Z,98816.38
2023-04-12T22:22:31.901Z,98815.34
2023-04-12T22:25:23.204Z,98814.28
2023-04-12T22:28:12.310Z,98813.00
2023-04-12T22:31:02.313Z,98809.66
2023-04-12T22:33:55.281Z,98797.47
2023-04-12T22:36:46.475Z,98804.69
2023-04-12T22:39:35.365Z,98815.00
2023-04-12T22:42:30.009Z,98813.81
2023-04-12T22:45:19.113Z,98817.09
2023-04-12T22:48:14.614Z,98824.41
2023-04-12T22:51:03.545Z,98828.34
2023-04-12T22:53:52.138Z,98836.91
2023-04-12T22:56:45.049Z,98832.31
2023-04-12T22:59:35.430Z,98845.41
2023-04-12T23:02:24.078Z,98845.19
2023-04-12T23:05:12.793Z,98845.66
2023-04-12T23:08:01.607Z,98845.66
2023-04-12T23:10:50.692Z,98856.41
2023-04-12T23:13:39.323Z,98851.91
2023-04-12T23:16:29.591Z,98851.31
2023-04-12T23:19:18.435Z,98865.34
2023-04-12T23:22:06.998Z,98859.56
2023-04-12T23:24:56.467Z,98859.22
2023-04-12T23:27:45.045Z,98856.19
2023-04-12T23:30:34.051Z,98854.66
2023-04-12T23:33:25.290Z,98864.31
2023-04-12T23:36:14.569Z,98861.66
2023-04-12T23:39:07.055Z,98860.59
2023-04-12T23:41:55.629Z,98861.66
2023-04-12T23:44:44.270Z,98859.44
2023-04-12T23:47:33.181Z,98861.88
2023-04-12T23:50:23.499Z,98870.22
2023-04-12T23:53:12.174Z,98873.56
2023-04-12T23:56:01.152Z,98878.91
2023-04-12T23:58:49.889Z,98874.38
